createdAt,value
2018-07-14T00:01:38.344Z,7.23
2018-07-14T00:04:07.259Z,8.00
2018-07-14T00:06:36.269Z,7.07
2018-07-14T00:09:06.245Z,7.70
2018-07-14T00:11:35.182Z,7.13
2018-07-14T00:14:04.124Z,7.43
2018-07-14T00:16:33.016Z,7.37
2018-07-14T00:19:01.930Z,7.63
2018-07-14T00:21:30.841Z,7.50
2018-07-14T00:23:59.760Z,7.67
2018-07-14T00:26:28.666Z,8.30
2018-07-14T00:28:57.594Z,7.03
2018-07-14T00:31:26.515Z,8.53
2018-07-14T00:33:55.419Z,7.80
2018-07-14T00:36:24.313Z,8.80
2018-07-14T00:38:53.339Z,7.77
2018-07-14T00:41:22.232Z,8.00
2018-07-14T00:43:51.144Z,7.83
2018-07-14T00:46:20.053Z,8.97
2018-07-14T00:48:48.965Z,7.70
2018-07-14T00:51:17.894Z,8.47
2018-07-14T00:53:46.808Z,10.50
2018-07-14T00:56:15.728Z,9.77
2018-07-14T00:58:44.640Z,9.20
2018-07-14T01:01:13.520Z,9.67
2018-07-14T01:03:42.428Z,9.83
2018-07-14T01:06:11.336Z,8.03
2018-07-14T01:08:40.254Z,10.03
2018-07-14T01:11:09.187Z,10.30
2018-07-14T01:13:38.072Z,9.77
2018-07-14T01:16:06.978Z,10.40
2018-07-14T01:18:35.881Z,10.83
2018-07-14T01:21:04.779Z,10.67
2018-07-14T01:23:33.684Z,9.70
2018-07-14T01:26:02.607Z,10.57
2018-07-14T01:28:31.559Z,10.67
2018-07-14T01:31:00.494Z,11.60
2018-07-14T01:33:29.408Z,10.43
2018-07-14T01:35:58.321Z,11.67
2018-07-14T01:38:27.242Z,12.23
2018-07-14T01:40:56.160Z,12.03
2018-07-14T01:43:25.074Z,12.23
2018-07-14T01:45:54.002Z,13.13
2018-07-14T01:48:22.932Z,13.40
2018-07-14T01:50:51.943Z,14.10
2018-07-14T01:53:20.859Z,14.90
2018-07-14T01:55:49.796Z,14.53
2018-07-14T01:58:18.788Z,15.03
2018-07-14T02:00:47.750Z,14.30
2018-07-14T02:03:16.664Z,15.87
2018-07-14T02:05:45.598Z,14.33
2018-07-14T02:08:14.527Z,14.87
2018-07-14T02:10:43.475Z,14.83
2018-07-14T02:13:12.371Z,15.27
2018-07-14T02:15:41.313Z,13.90
2018-07-14T02:18:10.250Z,15.33
2018-07-14T02:20:39.167Z,13.60
2018-07-14T02:23:08.111Z,15.50
2018-07-14T02:25:37.056Z,13.67
2018-07-14T02:28:06.081Z,14.87
2018-07-14T02:30:35.021Z,16.03
2018-07-14T02:33:04.073Z,14.23
2018-07-14T02:35:33.003Z,14.70
2018-07-14T02:38:01.912Z,16.33
2018-07-14T02:40:30.824Z,15.10
2018-07-14T02:42:59.760Z,15.33
2018-07-14T02:45:28.696Z,15.53
2018-07-14T02:47:57.622Z,16.27
2018-07-14T02:50:26.557Z,15.30
2018-07-14T02:52:55.488Z,16.17
2018-07-14T02:55:24.437Z,16.67
2018-07-14T02:57:53.334Z,15.67
2018-07-14T03:00:22.252Z,15.90
2018-07-14T03:02:51.215Z,15.83
2018-07-14T03:05:20.112Z,16.47
2018-07-14T03:07:49.050Z,15.83
2018-07-14T03:10:17.989Z,16.33
2018-07-14T03:12:46.963Z,17.40
2018-07-14T03:15:15.930Z,17.17
2018-07-14T03:17:44.960Z,16.30
2018-07-14T03:20:13.864Z,16.30
2018-07-14T03:22:42.792Z,14.83
2018-07-14T03:25:11.735Z,17.17
2018-07-14T03:27:40.676Z,17.17
2018-07-14T03:30:09.623Z,16.93
2018-07-14T03:32:38.652Z,15.63
2018-07-14T03:35:07.612Z,15.27
2018-07-14T03:37:36.555Z,17.57
2018-07-14T03:40:05.806Z,18.27
2018-07-14T03:42:34.717Z,17.23
2018-07-14T03:45:03.893Z,17.43
2018-07-14T03:47:32.859Z,16.80
2018-07-14T03:50:01.778Z,16.03
2018-07-14T03:52:30.725Z,18.43
2018-07-14T03:54:59.664Z,15.03
2018-07-14T03:57:28.594Z,16.57
2018-07-14T03:59:57.517Z,16.87
2018-07-14T04:02:26.439Z,17.57
2018-07-14T04:04:55.372Z,17.97
2018-07-14T04:07:24.420Z,17.57
2018-07-14T04:09:53.422Z,16.00
2018-07-14T04:12:22.381Z,17.97
2018-07-14T04:14:51.474Z,17.27
2018-07-14T04:17:20.300Z,17.23
2018-07-14T04:19:49.207Z,17.83
2018-07-14T04:22:18.138Z,16.47
2018-07-14T04:24:47.047Z,16.67
2018-07-14T04:27:16.058Z,18.90
2018-07-14T04:29:44.997Z,16.73
2018-07-14T04:32:13.952Z,16.23
2018-07-14T04:34:42.877Z,18.50
2018-07-14T04:37:11.852Z,17.40
2018-07-14T04:39:40.829Z,17.43
2018-07-14T04:42:09.748Z,16.73
2018-07-14T04:44:38.666Z,16.93
2018-07-14T04:47:07.629Z,17.97
2018-07-14T04:49:36.549Z,17.97
2018-07-14T04:52:05.559Z,17.20
2018-07-14T04:54:34.473Z,17.80
2018-07-14T04:57:08.213Z,15.93
2018-07-14T04:59:37.124Z,16.83
2018-07-14T05:02:06.210Z,17.00
2018-07-14T05:04:35.142Z,18.37
2018-07-14T05:07:04.112Z,17.53
2018-07-14T05:09:33.146Z,16.47
2018-07-14T05:12:02.199Z,18.27
2018-07-14T05:14:31.133Z,16.63
2018-07-14T05:17:00.052Z,15.73
2018-07-14T05:19:28.998Z,17.37
2018-07-14T05:21:58.005Z,16.23
2018-07-14T05:24:26.933Z,16.87
2018-07-14T05:26:55.887Z,17.07
2018-07-14T05:29:24.811Z,15.77
2018-07-14T05:31:53.730Z,16.70
2018-07-14T05:34:22.658Z,16.17
2018-07-14T05:36:51.595Z,17.27
2018-07-14T05:39:20.879Z,17.33
2018-07-14T05:41:49.808Z,14.43
2018-07-14T05:44:18.731Z,16.07
2018-07-14T05:46:47.686Z,14.97
2018-07-14T05:49:16.642Z,16.73
2018-07-14T05:51:45.624Z,14.83
2018-07-14T05:54:14.688Z,14.40
2018-07-14T05:56:43.711Z,14.50
2018-07-14T05:59:12.628Z,15.10
2018-07-14T06:01:41.938Z,15.23
2018-07-14T06:04:11.103Z,15.43
2018-07-14T06:06:40.200Z,15.33
2018-07-14T06:09:09.202Z,14.50
2018-07-14T06:11:38.124Z,15.87
2018-07-14T06:14:07.096Z,13.97
2018-07-14T06:16:36.032Z,13.93
2018-07-14T06:19:05.004Z,13.47
2018-07-14T06:21:33.962Z,15.17
2018-07-14T06:24:02.979Z,12.83
2018-07-14T06:26:31.940Z,13.00
2018-07-14T06:29:00.937Z,12.50
2018-07-14T06:31:29.936Z,13.03
2018-07-14T06:33:59.350Z,12.03
2018-07-14T06:36:28.286Z,13.90
2018-07-14T06:38:57.215Z,13.17
2018-07-14T06:41:26.190Z,12.20
2018-07-14T06:43:55.194Z,11.77
2018-07-14T06:46:24.174Z,12.13
2018-07-14T06:48:53.117Z,11.73
2018-07-14T06:51:22.019Z,12.50
2018-07-14T06:53:50.953Z,12.23
2018-07-14T06:56:19.873Z,14.20
2018-07-14T06:58:49.068Z,14.43
2018-07-14T07:01:18.011Z,12.83
2018-07-14T07:03:47.058Z,13.37
2018-07-14T07:06:16.019Z,11.87
2018-07-14T07:08:44.972Z,13.23
2018-07-14T07:11:14.076Z,13.07
2018-07-14T07:13:43.111Z,12.57
2018-07-14T07:16:11.996Z,14.43
2018-07-14T07:18:40.936Z,11.70
2018-07-14T07:21:09.947Z,12.03
2018-07-14T07:23:38.881Z,12.17
2018-07-14T07:26:07.840Z,11.47
2018-07-14T07:28:36.753Z,11.93
2018-07-14T07:31:05.716Z,12.13
2018-07-14T07:33:34.640Z,11.73
2018-07-14T07:36:03.651Z,12.87
2018-07-14T07:38:32.601Z,13.87
2018-07-14T07:41:01.506Z,12.63
2018-07-14T07:43:30.471Z,10.77
2018-07-14T07:45:59.450Z,11.23
2018-07-14T07:48:28.508Z,12.47
2018-07-14T07:50:57.511Z,11.17
2018-07-14T07:53:26.527Z,10.40
2018-07-14T07:55:55.460Z,9.97
2018-07-14T07:58:24.371Z,10.57
2018-07-14T08:00:53.278Z,11.13
2018-07-14T08:03:22.212Z,10.80
2018-07-14T08:05:51.166Z,10.53
2018-07-14T08:08:20.165Z,8.70
2018-07-14T08:10:49.102Z,9.13
2018-07-14T08:13:18.007Z,10.38
2018-07-14T08:15:46.912Z,10.17
2018-07-14T08:18:15.836Z,9.90
2018-07-14T08:20:44.760Z,10.85
2018-07-14T08:23:13.694Z,10.10
2018-07-14T08:25:42.596Z,8.68
2018-07-14T08:28:11.548Z,9.85
2018-07-14T08:30:40.464Z,10.00
2018-07-14T08:33:09.359Z,8.75
2018-07-14T08:35:38.300Z,9.33
2018-07-14T08:38:07.287Z,10.03
2018-07-14T08:40:36.193Z,9.38
2018-07-14T08:43:05.167Z,9.53
2018-07-14T08:45:34.162Z,8.65
2018-07-14T08:48:03.112Z,10.05
2018-07-14T08:50:32.081Z,8.73
2018-07-14T08:53:00.938Z,8.83
2018-07-14T08:55:29.831Z,10.37
2018-07-14T08:57:58.796Z,10.23
2018-07-14T09:00:27.744Z,9.07
2018-07-14T09:02:56.706Z,9.33
2018-07-14T09:05:25.756Z,10.20
2018-07-14T09:07:54.767Z,8.70
2018-07-14T09:10:23.832Z,7.83
2018-07-14T09:12:52.785Z,8.60
2018-07-14T09:15:21.724Z,8.33
2018-07-14T09:17:50.665Z,10.45
2018-07-14T09:20:19.609Z,7.92
2018-07-14T09:22:48.548Z,7.20
2018-07-14T09:25:17.485Z,8.05
2018-07-14T09:27:46.425Z,7.70
2018-07-14T09:30:15.401Z,7.20
2018-07-14T09:32:44.454Z,7.30
2018-07-14T09:35:13.354Z,8.80
2018-07-14T09:37:42.239Z,7.20
2018-07-14T09:40:11.186Z,8.00
2018-07-14T09:42:40.124Z,8.03
2018-07-14T09:45:09.075Z,7.95
2018-07-14T09:47:38.048Z,6.72
2018-07-14T09:50:06.987Z,8.33
2018-07-14T09:52:35.926Z,6.78
2018-07-14T09:55:05.015Z,6.17
2018-07-14T09:57:34.026Z,7.60
2018-07-14T10:00:03.010Z,7.35
2018-07-14T10:02:31.989Z,7.20
2018-07-14T10:05:00.933Z,6.15
2018-07-14T10:07:29.913Z,6.15
2018-07-14T10:09:58.972Z,6.62
2018-07-14T10:12:27.903Z,7.37
2018-07-14T10:14:56.966Z,7.08
2018-07-14T10:17:25.974Z,7.42
2018-07-14T10:19:54.908Z,7.12
2018-07-14T10:22:23.956Z,7.05
2018-07-14T10:24:52.837Z,6.72
2018-07-14T10:27:21.884Z,6.80
2018-07-14T10:29:51.004Z,6.22
2018-07-14T10:32:19.949Z,6.50
2018-07-14T10:34:48.914Z,5.95
2018-07-14T10:37:17.952Z,5.80
2018-07-14T10:39:46.931Z,7.87
2018-07-14T10:42:15.997Z,5.28
2018-07-14T10:44:44.836Z,7.03
2018-07-14T10:47:13.780Z,5.12
2018-07-14T10:49:42.712Z,6.30
2018-07-14T10:52:11.696Z,6.35
2018-07-14T10:54:40.634Z,6.85
2018-07-14T10:57:09.558Z,6.00
2018-07-14T10:59:39.488Z,5.80
2018-07-14T11:02:08.416Z,6.57
2018-07-14T11:04:37.341Z,6.35
2018-07-14T11:07:06.250Z,5.97
2018-07-14T11:09:35.195Z,5.70
2018-07-14T11:12:04.283Z,6.45
2018-07-14T11:14:33.213Z,5.65
2018-07-14T11:17:02.151Z,5.15
2018-07-14T11:19:31.299Z,5.12
2018-07-14T11:22:00.361Z,5.67
2018-07-14T11:24:31.584Z,5.85
2018-07-14T11:27:00.626Z,5.60
2018-07-14T11:29:29.673Z,5.65
2018-07-14T11:31:58.818Z,4.87
2018-07-14T11:34:41.274Z,6.00
2018-07-14T11:37:27.027Z,5.90
2018-07-14T11:40:01.847Z,5.67
2018-07-14T11:42:42.199Z,5.17
2018-07-14T11:45:27.830Z,5.35
2018-07-14T11:48:15.470Z,5.45
2018-07-14T11:50:55.002Z,5.17
2018-07-14T11:56:39.569Z,4.80
2018-07-14T11:59:43.122Z,5.15
2018-07-14T12:04:06.093Z,3.75
2018-07-14T12:11:33.754Z,4.72
2018-07-14T12:20:22.123Z,5.22
2018-07-14T12:29:55.886Z,4.67
2018-07-14T12:32:44.888Z,4.37
2018-07-14T12:47:43.490Z,4.20
2018-07-14T12:50:51.980Z,4.42
2018-07-14T12:56:53.044Z,3.85
2018-07-14T12:59:37.977Z,3.42
2018-07-14T13:02:25.671Z,3.65
2018-07-14T13:14:37.083Z,3.57
2018-07-14T13:17:06.319Z,4.17
2018-07-14T13:19:35.266Z,3.97
2018-07-14T13:22:04.325Z,4.77
2018-07-14T13:24:33.346Z,4.07
2018-07-14T13:27:02.337Z,4.13
2018-07-14T14:46:28.093Z,2.57
2018-07-14T14:49:15.543Z,2.60
2018-07-14T14:57:55.727Z,2.60
2018-07-14T15:00:27.963Z,2.07
2018-07-14T15:03:17.927Z,2.73
2018-07-14T15:06:09.037Z,2.67
2018-07-14T15:09:30.978Z,2.67
2018-07-14T15:12:20.617Z,2.43
2018-07-14T15:18:01.058Z,2.17
2018-07-14T15:23:30.697Z,2.03
2018-07-14T15:26:09.169Z,1.90
2018-07-14T15:28:48.110Z,1.90
2018-07-14T15:31:27.254Z,2.20
2018-07-14T15:34:07.703Z,2.33
2018-07-14T15:36:54.323Z,2.10
2018-07-14T15:39:30.714Z,2.13
2018-07-14T15:42:06.636Z,2.20
2018-07-14T15:44:48.503Z,2.33
2018-07-14T15:47:24.892Z,2.10
2018-07-14T15:50:02.836Z,2.30
2018-07-14T15:52:40.428Z,1.93
2018-07-14T15:55:11.988Z,1.97
2018-07-14T15:57:46.487Z,1.87
2018-07-14T16:00:16.974Z,2.00
2018-07-14T16:02:50.479Z,2.90
2018-07-14T16:05:22.551Z,2.40
2018-07-14T16:07:55.093Z,2.53
2018-07-14T16:10:24.368Z,2.63
2018-07-14T16:12:54.619Z,2.57
2018-07-14T16:15:24.084Z,3.23
2018-07-14T16:17:53.079Z,3.00
2018-07-14T16:20:22.091Z,2.10
2018-07-14T16:22:51.192Z,2.53
2018-07-14T16:25:20.400Z,3.07
2018-07-14T16:27:49.424Z,2.53
2018-07-14T16:30:18.794Z,2.40
2018-07-14T16:32:48.058Z,2.67
2018-07-14T16:35:17.240Z,3.07
2018-07-14T16:37:46.471Z,8.33
2018-07-14T16:40:15.616Z,4.10
2018-07-14T16:42:44.715Z,3.43
2018-07-14T16:45:13.797Z,2.87
2018-07-14T16:47:42.877Z,2.87
2018-07-14T16:50:12.012Z,2.77
2018-07-14T16:52:41.530Z,3.60
2018-07-14T16:55:10.739Z,2.90
2018-07-14T16:57:39.952Z,2.67
2018-07-14T17:00:08.951Z,2.70
2018-07-14T17:02:38.118Z,4.70
2018-07-14T17:05:07.254Z,4.30
2018-07-14T17:07:36.375Z,4.50
2018-07-14T17:10:05.513Z,3.70
2018-07-14T17:12:34.621Z,3.27
2018-07-14T17:15:03.681Z,2.70
2018-07-14T17:17:32.984Z,2.80
2018-07-14T17:20:02.155Z,3.23
2018-07-14T17:22:31.234Z,3.40
2018-07-14T17:25:00.441Z,3.00
2018-07-14T17:27:29.603Z,2.33
2018-07-14T17:29:58.737Z,2.80
2018-07-14T17:32:27.819Z,2.77
2018-07-14T17:34:57.016Z,2.90
2018-07-14T17:37:26.179Z,8.37
2018-07-14T17:39:55.321Z,4.77
2018-07-14T17:42:24.973Z,10.80
2018-07-14T17:45:11.391Z,10.67
2018-07-14T17:47:41.633Z,9.33
2018-07-14T17:50:10.665Z,5.33
2018-07-14T17:52:39.725Z,12.17
2018-07-14T17:55:08.805Z,16.93
2018-07-14T17:57:38.417Z,10.17
2018-07-14T18:00:07.419Z,22.60
2018-07-14T18:02:36.503Z,30.57
2018-07-14T18:05:05.564Z,97.77
2018-07-14T18:07:35.635Z,21.27
2018-07-14T18:10:04.729Z,26.00
2018-07-14T18:12:33.819Z,13.00
2018-07-14T18:15:02.856Z,9.67
2018-07-14T18:17:31.953Z,7.27
2018-07-14T18:20:01.002Z,9.77
2018-07-14T18:22:30.092Z,6.17
2018-07-14T18:24:59.136Z,19.13
2018-07-14T18:27:28.164Z,18.87
2018-07-14T18:29:57.337Z,22.90
2018-07-14T18:32:26.427Z,41.77
2018-07-14T18:34:55.484Z,27.67
2018-07-14T18:37:24.588Z,23.50
2018-07-14T18:39:53.640Z,21.73
2018-07-14T18:42:22.830Z,7.97
2018-07-14T18:44:51.988Z,5.33
2018-07-14T18:47:21.133Z,6.23
2018-07-14T18:49:50.174Z,5.67
2018-07-14T18:52:19.388Z,9.13
2018-07-14T18:54:48.252Z,7.73
2018-07-14T18:57:17.269Z,6.07
2018-07-14T18:59:46.283Z,6.57
2018-07-14T19:02:15.761Z,6.43
2018-07-14T19:04:44.749Z,6.13
2018-07-14T19:07:13.766Z,5.87
2018-07-14T19:09:42.836Z,5.90
2018-07-14T19:12:11.894Z,5.00
2018-07-14T19:14:41.266Z,4.33
2018-07-14T19:17:11.769Z,4.47
2018-07-14T19:19:41.146Z,4.10
2018-07-14T19:22:12.283Z,3.03
2018-07-14T19:24:42.090Z,3.73
2018-07-14T19:27:15.330Z,4.40
2018-07-14T19:29:45.892Z,3.53
2018-07-14T19:32:16.060Z,3.33
2018-07-14T19:34:55.233Z,4.30
2018-07-14T19:37:29.042Z,3.87
2018-07-14T19:49:35.073Z,4.77
2018-07-14T19:52:05.503Z,4.43
2018-07-14T19:54:35.546Z,4.23
2018-07-14T19:57:28.226Z,4.40
2018-07-14T20:02:39.775Z,4.67
2018-07-14T20:05:14.917Z,5.20
2018-07-14T20:10:37.603Z,6.83
2018-07-14T20:13:19.309Z,13.67
2018-07-14T20:16:03.912Z,7.37
2018-07-14T20:18:44.114Z,4.70
2018-07-14T20:21:21.181Z,4.90
2018-07-14T20:23:51.372Z,5.57
2018-07-14T20:26:24.223Z,5.10
2018-07-14T20:32:53.634Z,6.57
2018-07-14T20:41:44.410Z,4.43
2018-07-14T20:44:16.838Z,4.57
2018-07-14T20:46:47.268Z,4.73
2018-07-14T20:49:17.504Z,6.50
2018-07-14T20:51:49.467Z,4.60
2018-07-14T20:54:22.920Z,4.83
2018-07-14T20:56:52.521Z,5.03
2018-07-14T20:59:21.872Z,4.50
2018-07-14T22:23:50.477Z,4.97
2018-07-14T22:26:19.589Z,5.23
2018-07-14T22:28:48.628Z,5.23
2018-07-14T22:31:17.795Z,5.50
2018-07-14T22:33:46.844Z,5.07
2018-07-14T22:36:16.045Z,5.03
2018-07-14T22:38:45.286Z,5.57
2018-07-14T22:41:14.341Z,6.60
2018-07-14T22:43:43.536Z,5.73
2018-07-14T22:46:12.602Z,5.30
2018-07-14T22:48:41.700Z,5.73
2018-07-14T22:51:10.751Z,5.63
2018-07-14T22:53:39.970Z,5.33
2018-07-14T22:56:09.070Z,5.57
2018-07-14T22:58:38.083Z,5.57
2018-07-14T23:01:07.339Z,4.93
2018-07-14T23:03:36.411Z,5.27
2018-07-14T23:06:05.547Z,5.07
2018-07-14T23:08:34.604Z,5.30
2018-07-14T23:11:03.602Z,6.73
2018-07-14T23:13:33.567Z,6.53
2018-07-14T23:16:03.233Z,5.40
2018-07-14T23:18:32.222Z,5.60
2018-07-14T23:21:01.220Z,6.00
2018-07-14T23:23:33.310Z,5.83
2018-07-14T23:26:18.566Z,5.70
2018-07-14T23:28:49.373Z,5.87
2018-07-14T23:31:48.092Z,6.30
2018-07-14T23:34:57.591Z,5.97
